Time;durP1;ratioP1;P1;durP2;ratioP2;P2;SDS_P1;SDS_P2;PMS_P1;PMS_P2;Temp;Humidity;BMP_temperature;BMP_pressure;BME280_temperature;BME280_humidity;BME280_pressure;Samples;Min_cycle;Max_cycle;Signal;HPM_P1;HPM_P2
2020/12/27 00:00:10;;;;;;;11.47;9.03;;;5.90;99.90;;;;;;5016254;28;20181;-90
2020/12/27 00:02:38;;;;;;;12.03;10.13;;;5.80;99.90;;;;;;5016387;28;20161;-90
2020/12/27 00:05:06;;;;;;;15.17;9.53;;;5.80;99.90;;;;;;5015913;28;20266;-90
2020/12/27 00:07:32;;;;;;;10.90;9.70;;;5.90;99.90;;;;;;5016192;28;20173;-90
2020/12/27 00:09:58;;;;;;;11.63;9.63;;;5.80;99.90;;;;;;5016977;28;20205;-91
2020/12/27 00:12:26;;;;;;;10.87;9.50;;;5.90;99.90;;;;;;4999840;28;20208;-89
2020/12/27 00:14:52;;;;;;;14.40;8.93;;;5.80;99.90;;;;;;5027720;28;20152;-90
2020/12/27 00:17:18;;;;;;;11.17;9.07;;;5.80;99.90;;;;;;5039861;28;20207;-89
2020/12/27 00:19:43;;;;;;;9.73;7.73;;;5.80;99.90;;;;;;5039888;28;20175;-90
2020/12/27 00:22:13;;;;;;;8.43;7.63;;;5.80;99.90;;;;;;5032096;28;20211;-90
2020/12/27 00:24:42;;;;;;;8.17;7.33;;;5.80;99.90;;;;;;5015570;28;20169;-89
2020/12/27 00:27:07;;;;;;;18.23;7.80;;;5.80;99.90;;;;;;5016281;28;20219;-90
2020/12/27 00:29:40;;;;;;;17.40;7.97;;;5.80;99.90;;;;;;5016991;28;20169;-90
2020/12/27 00:32:06;;;;;;;12.90;7.70;;;5.80;99.90;;;;;;5005421;28;20176;-90
2020/12/27 00:34:33;;;;;;;11.07;7.50;;;5.70;99.90;;;;;;5038783;28;20209;-90
2020/12/27 00:37:01;;;;;;;8.77;7.17;;;5.80;99.90;;;;;;5040104;28;20164;-90
2020/12/27 00:39:27;;;;;;;8.87;7.00;;;5.80;99.90;;;;;;5024184;28;20181;-90
2020/12/27 00:42:00;;;;;;;11.23;7.77;;;5.80;99.90;;;;;;5016940;28;20634;-89
2020/12/27 00:44:26;;;;;;;10.93;6.83;;;5.70;99.90;;;;;;5017046;28;20180;-90
2020/12/27 00:46:52;;;;;;;11.40;7.40;;;5.80;99.90;;;;;;5016858;28;20188;-90
2020/12/27 00:49:19;;;;;;;11.30;6.83;;;5.80;99.90;;;;;;5015886;28;20631;-91
2020/12/27 00:51:45;;;;;;;9.80;6.73;;;5.80;99.90;;;;;;5015231;28;20183;-90
2020/12/27 00:54:11;;;;;;;8.43;6.63;;;5.80;99.90;;;;;;4999222;28;20201;-89
2020/12/27 00:56:37;;;;;;;8.13;5.97;;;5.90;99.90;;;;;;5016522;28;20168;-91
2020/12/27 00:59:03;;;;;;;7.93;6.30;;;5.80;99.90;;;;;;5015312;28;20520;-89
2020/12/27 01:01:29;;;;;;;6.33;5.67;;;5.80;99.90;;;;;;5015471;28;20280;-90
2020/12/27 01:03:55;;;;;;;9.27;5.77;;;5.80;99.90;;;;;;5016318;28;20173;-91
2020/12/27 01:06:24;;;;;;;8.57;5.97;;;5.80;99.90;;;;;;5015153;28;20653;-90
2020/12/27 01:08:50;;;;;;;7.83;6.03;;;5.80;99.90;;;;;;5015444;28;20187;-92
2020/12/27 01:11:15;;;;;;;7.10;6.40;;;5.70;99.90;;;;;;4998865;28;20547;-90
2020/12/27 01:13:41;;;;;;;8.23;6.07;;;5.70;99.90;;;;;;4998493;28;20223;-90
2020/12/27 01:16:14;;;;;;;10.60;6.63;;;5.70;99.90;;;;;;4998450;28;20211;-90
2020/12/27 01:18:42;;;;;;;7.77;6.30;;;5.70;99.90;;;;;;4995469;28;20213;-91
2020/12/27 01:21:08;;;;;;;8.57;6.00;;;5.70;99.90;;;;;;4996357;28;20558;-90
2020/12/27 01:23:34;;;;;;;6.20;5.60;;;5.70;99.90;;;;;;4999034;28;20188;-90
2020/12/27 01:25:59;;;;;;;5.73;5.23;;;5.70;99.90;;;;;;4995047;28;20224;-91
2020/12/27 01:28:25;;;;;;;5.40;4.93;;;5.70;99.90;;;;;;4978919;28;20177;-91
2020/12/27 01:30:51;;;;;;;5.43;5.03;;;5.70;99.90;;;;;;4978999;28;20231;-91
2020/12/27 01:33:16;;;;;;;7.40;5.33;;;5.70;99.90;;;;;;4978679;28;20742;-91
2020/12/27 01:35:46;;;;;;;7.80;5.90;;;5.70;99.90;;;;;;4997496;28;20188;-90
2020/12/27 01:38:13;;;;;;;10.50;5.70;;;5.80;99.90;;;;;;5014482;28;20657;-90
2020/12/27 01:40:39;;;;;;;10.93;5.50;;;5.70;99.90;;;;;;5014590;28;20172;-91
2020/12/27 01:43:05;;;;;;;9.00;5.17;;;5.80;99.90;;;;;;5015814;28;20188;-91
2020/12/27 01:45:31;;;;;;;7.70;4.93;;;5.80;99.90;;;;;;5014495;28;20196;-91
2020/12/27 01:47:57;;;;;;;8.10;5.00;;;5.80;99.90;;;;;;5015537;28;20522;-91
2020/12/27 01:50:23;;;;;;;5.43;4.93;;;5.80;99.90;;;;;;5014455;28;20276;-91
2020/12/27 01:52:49;;;;;;;9.90;4.57;;;5.80;99.90;;;;;;4998156;28;20359;-91
2020/12/27 01:55:16;;;;;;;8.83;4.40;;;5.80;99.90;;;;;;5014348;28;20617;-92
2020/12/27 01:58:05;;;;;;;4.93;4.53;;;5.80;99.90;;;;;;4998361;28;20537;-90
2020/12/27 02:00:33;;;;;;;4.63;4.17;;;5.80;99.90;;;;;;5014396;28;20321;-90
2020/12/27 02:02:59;;;;;;;4.90;4.50;;;5.80;99.90;;;;;;5014247;28;20208;-91
2020/12/27 02:05:25;;;;;;;4.20;3.80;;;5.80;99.90;;;;;;4998095;28;20173;-91
2020/12/27 02:07:50;;;;;;;4.80;3.83;;;5.90;99.90;;;;;;4981820;28;20196;-90
2020/12/27 02:10:16;;;;;;;5.97;4.20;;;5.90;99.90;;;;;;5014491;28;20180;-90
2020/12/27 02:12:42;;;;;;;9.13;4.00;;;6.00;99.90;;;;;;4998468;28;20209;-92
2020/12/27 02:15:08;;;;;;;4.50;4.00;;;5.90;99.90;;;;;;4981656;28;20717;-91
2020/12/27 02:17:33;;;;;;;6.13;4.30;;;5.90;99.90;;;;;;4982065;28;20177;-90
2020/12/27 02:19:59;;;;;;;4.40;4.00;;;5.90;99.90;;;;;;4982335;28;20172;-89
2020/12/27 02:22:25;;;;;;;9.10;4.17;;;6.00;99.90;;;;;;5014483;28;20191;-90
2020/12/27 02:24:50;;;;;;;4.93;4.17;;;5.90;99.90;;;;;;5014357;28;20183;-90
2020/12/27 02:27:16;;;;;;;5.30;3.53;;;5.90;99.90;;;;;;4997665;28;20235;-92
2020/12/27 02:29:42;;;;;;;7.40;3.93;;;6.00;99.90;;;;;;4981942;28;20189;-90
2020/12/27 02:32:07;;;;;;;5.10;3.57;;;6.00;99.90;;;;;;4981378;28;20176;-90
2020/12/27 02:34:33;;;;;;;5.13;3.23;;;5.90;99.90;;;;;;4981662;28;20212;-91
2020/12/27 02:36:58;;;;;;;5.90;3.83;;;5.90;99.90;;;;;;5013915;28;20594;-90
2020/12/27 02:39:24;;;;;;;4.17;2.97;;;5.90;99.90;;;;;;4981447;28;20180;-89
2020/12/27 02:41:51;;;;;;;4.67;2.73;;;6.00;99.90;;;;;;5003605;28;20192;-91
2020/12/27 02:44:17;;;;;;;3.13;2.80;;;6.00;99.90;;;;;;5021572;28;20181;-91
2020/12/27 02:46:43;;;;;;;5.37;3.30;;;6.10;99.90;;;;;;5038517;28;20192;-93
2020/12/27 02:49:08;;;;;;;4.80;3.17;;;6.00;99.90;;;;;;5038093;28;20184;-90
2020/12/27 02:51:34;;;;;;;3.10;2.43;;;5.90;99.90;;;;;;5001355;28;20532;-90
2020/12/27 02:54:00;;;;;;;5.63;3.00;;;5.90;99.90;;;;;;5001078;28;20212;-90
2020/12/27 02:56:27;;;;;;;3.23;2.87;;;5.80;99.90;;;;;;5001283;28;20176;-90
2020/12/27 02:58:58;;;;;;;5.23;3.47;;;5.90;99.90;;;;;;5001449;28;20228;-90
2020/12/27 03:01:24;;;;;;;5.17;3.23;;;5.90;99.90;;;;;;5038809;28;20177;-91
2020/12/27 03:03:50;;;;;;;3.03;2.60;;;5.90;99.90;;;;;;5040835;28;20157;-91
2020/12/27 03:06:18;;;;;;;3.57;2.73;;;5.90;99.90;;;;;;5033187;28;20343;-89
2020/12/27 03:08:45;;;;;;;3.20;2.73;;;5.90;99.90;;;;;;5019224;28;20184;-93
2020/12/27 03:11:11;;;;;;;2.43;2.23;;;5.90;99.90;;;;;;4985010;28;20204;-90
2020/12/27 03:13:37;;;;;;;3.87;2.60;;;5.90;99.90;;;;;;5001259;28;20255;-90
2020/12/27 03:16:05;;;;;;;5.03;2.80;;;6.00;99.90;;;;;;4998210;28;20188;-90
2020/12/27 03:18:31;;;;;;;2.43;2.00;;;6.00;99.90;;;;;;4983776;28;20184;-91
2020/12/27 03:20:57;;;;;;;3.63;2.50;;;6.10;99.90;;;;;;4998270;28;20224;-90
2020/12/27 03:23:24;;;;;;;3.00;1.90;;;6.20;99.90;;;;;;4981486;28;20181;-90
2020/12/27 03:25:50;;;;;;;2.30;1.90;;;6.20;99.90;;;;;;4997916;28;20169;-90
2020/12/27 03:28:16;;;;;;;1.80;1.70;;;6.20;99.90;;;;;;4998754;28;20204;-89
2020/12/27 03:30:42;;;;;;;1.70;1.60;;;6.20;99.90;;;;;;4998002;28;20193;-89
2020/12/27 03:33:08;;;;;;;1.97;1.77;;;6.30;99.90;;;;;;4997739;28;20716;-88
2020/12/27 03:35:34;;;;;;;2.27;1.90;;;6.40;99.90;;;;;;5009588;28;20181;-90
2020/12/27 03:37:59;;;;;;;2.37;1.60;;;6.40;99.90;;;;;;5018393;28;20179;-90
2020/12/27 03:40:25;;;;;;;1.63;1.50;;;6.40;99.90;;;;;;5000725;28;20267;-90
2020/12/27 03:42:51;;;;;;;1.53;1.43;;;6.40;99.90;;;;;;5018251;28;20196;-90
2020/12/27 03:45:17;;;;;;;4.40;1.33;;;6.40;99.90;;;;;;5017254;28;20236;-89
2020/12/27 03:47:43;;;;;;;1.57;1.47;;;6.50;99.90;;;;;;5018754;28;20536;-91
2020/12/27 03:50:09;;;;;;;1.03;1.00;;;6.40;99.90;;;;;;5016962;28;20173;-89
2020/12/27 03:52:34;;;;;;;1.10;1.10;;;6.50;99.90;;;;;;5016655;28;20287;-90
2020/12/27 03:55:00;;;;;;;1.87;1.10;;;6.50;99.90;;;;;;5016683;28;20678;-90
2020/12/27 03:57:26;;;;;;;1.90;1.33;;;6.50;99.90;;;;;;4999943;28;20227;-90
2020/12/27 03:59:51;;;;;;;1.20;1.10;;;6.40;99.90;;;;;;4986032;28;20183;-89
2020/12/27 04:02:17;;;;;;;1.37;1.27;;;6.40;99.90;;;;;;5017320;28;20642;-90
2020/12/27 04:04:43;;;;;;;1.57;1.40;;;6.50;99.90;;;;;;5017010;28;20184;-91
2020/12/27 04:07:09;;;;;;;2.07;1.20;;;6.40;99.90;;;;;;5000194;28;20196;-90
2020/12/27 04:09:35;;;;;;;1.13;1.13;;;6.30;99.90;;;;;;5000240;28;20177;-90
2020/12/27 04:12:00;;;;;;;1.30;1.20;;;6.30;99.90;;;;;;5016542;28;20167;-91
2020/12/27 04:14:26;;;;;;;2.07;1.00;;;6.20;99.90;;;;;;5016603;28;20686;-90
2020/12/27 04:16:52;;;;;;;1.57;1.47;;;6.30;99.90;;;;;;5016549;28;20248;-90
2020/12/27 04:19:18;;;;;;;5.33;1.20;;;6.20;99.90;;;;;;5016453;28;20180;-90
2020/12/27 04:21:47;;;;;;;1.90;1.00;;;6.20;99.90;;;;;;5016420;28;20188;-90
2020/12/27 04:24:13;;;;;;;2.80;1.30;;;6.20;99.90;;;;;;5016948;28;20215;-91
2020/12/27 04:26:39;;;;;;;1.07;1.07;;;6.20;99.90;;;;;;5019282;28;20187;-90
2020/12/27 04:29:05;;;;;;;1.57;1.20;;;6.20;99.90;;;;;;5018535;28;20165;-91
2020/12/27 04:31:31;;;;;;;1.43;1.20;;;6.20;99.90;;;;;;4984177;28;20192;-90
2020/12/27 04:33:57;;;;;;;1.00;1.00;;;6.20;99.90;;;;;;5000448;28;20212;-92
2020/12/27 04:36:23;;;;;;;0.90;0.90;;;6.20;99.90;;;;;;4999933;28;20168;-90
2020/12/27 04:38:49;;;;;;;1.10;1.00;;;6.20;99.90;;;;;;5000382;28;20169;-91
2020/12/27 04:41:16;;;;;;;1.07;1.00;;;6.20;99.90;;;;;;5016437;28;20219;-90
2020/12/27 04:43:44;;;;;;;0.87;0.87;;;6.20;99.90;;;;;;5017619;28;20521;-90
2020/12/27 04:46:11;;;;;;;1.03;0.77;;;6.20;99.90;;;;;;5016304;28;20180;-91
2020/12/27 04:48:42;;;;;;;1.00;0.90;;;6.20;99.90;;;;;;5016105;28;20187;-89
2020/12/27 04:51:09;;;;;;;2.70;1.00;;;6.30;99.90;;;;;;5016387;28;20176;-91
2020/12/27 04:53:36;;;;;;;1.07;0.87;;;6.20;99.90;;;;;;5016396;28;20215;-90
2020/12/27 04:56:03;;;;;;;0.83;0.70;;;6.20;99.90;;;;;;5016486;28;20264;-91
2020/12/27 04:58:29;;;;;;;2.33;0.80;;;6.10;99.90;;;;;;5016158;28;20177;-90
2020/12/27 05:01:00;;;;;;;1.03;0.97;;;6.10;99.90;;;;;;5000175;28;20177;-92
2020/12/27 05:03:26;;;;;;;0.80;0.80;;;6.10;99.90;;;;;;4983883;28;20177;-91
2020/12/27 05:05:54;;;;;;;1.57;0.80;;;6.00;99.90;;;;;;4983866;28;20180;-91
2020/12/27 05:08:21;;;;;;;0.63;0.63;;;6.00;99.90;;;;;;4999846;28;20195;-92
2020/12/27 05:10:47;;;;;;;1.10;1.00;;;6.00;99.90;;;;;;5035739;28;20165;-93
2020/12/27 05:13:17;;;;;;;1.50;0.90;;;5.90;99.90;;;;;;5038689;28;20203;-91
2020/12/27 05:15:44;;;;;;;1.77;1.00;;;5.90;99.90;;;;;;5038901;28;20173;-92
2020/12/27 05:18:10;;;;;;;0.63;0.63;;;5.90;99.90;;;;;;5003416;28;20192;-91
2020/12/27 05:20:38;;;;;;;1.07;1.00;;;5.90;99.90;;;;;;4996386;28;20329;-93
2020/12/27 05:23:06;;;;;;;0.93;0.87;;;5.90;99.90;;;;;;4997455;28;20173;-92
2020/12/27 05:25:33;;;;;;;0.80;0.80;;;5.90;99.90;;;;;;4996874;28;20176;-92
2020/12/27 05:28:10;;;;;;;0.73;0.73;;;5.90;99.90;;;;;;5011223;28;20184;-91
2020/12/27 05:30:41;;;;;;;0.80;0.80;;;5.90;99.90;;;;;;5032907;28;20199;-94
2020/12/27 05:33:17;;;;;;;0.83;0.83;;;6.00;99.90;;;;;;5014412;28;20671;-92
2020/12/27 05:35:43;;;;;;;0.77;0.73;;;5.90;99.90;;;;;;4992008;28;20614;-91
2020/12/27 05:38:11;;;;;;;0.97;0.87;;;6.00;99.90;;;;;;5017673;28;20173;-90
2020/12/27 05:40:41;;;;;;;1.20;0.90;;;6.00;99.90;;;;;;5016543;28;20235;-93
2020/12/27 05:43:27;;;;;;;1.50;0.90;;;6.00;99.90;;;;;;5000255;28;20283;-92
2020/12/27 05:45:57;;;;;;;3.20;0.90;;;6.00;99.90;;;;;;5015982;28;20578;-92
2020/12/27 05:48:26;;;;;;;0.80;0.80;;;6.00;99.90;;;;;;5016460;28;20172;-92
2020/12/27 05:50:52;;;;;;;0.70;0.70;;;6.00;99.90;;;;;;5016884;28;20175;-92
2020/12/27 05:53:23;;;;;;;1.27;0.80;;;6.00;99.90;;;;;;5016050;28;20204;-92
2020/12/27 05:55:53;;;;;;;0.90;0.90;;;6.00;99.90;;;;;;5016631;28;20165;-92
2020/12/27 05:58:24;;;;;;;2.20;0.90;;;6.10;99.90;;;;;;4996549;28;20181;-94
2020/12/27 06:00:55;;;;;;;0.90;0.90;;;6.00;99.90;;;;;;4996699;28;20256;-92
2020/12/27 06:03:23;;;;;;;2.73;0.67;;;6.10;99.90;;;;;;4996744;28;20177;-92
2020/12/27 06:05:54;;;;;;;1.07;0.90;;;6.00;99.90;;;;;;4996549;28;20192;-91
2020/12/27 06:08:54;;;;;;;4.93;0.90;;;6.10;99.90;;;;;;5011004;28;20173;-92
2020/12/27 06:11:35;;;;;;;0.93;0.63;;;6.00;99.90;;;;;;5014591;28;20173;-91
2020/12/27 06:14:35;;;;;;;3.23;0.70;;;6.00;99.90;;;;;;4998143;28;20211;-92
2020/12/27 06:17:09;;;;;;;0.83;0.80;;;6.10;99.90;;;;;;5014094;28;20208;-91
2020/12/27 06:19:56;;;;;;;0.50;0.50;;;6.10;99.90;;;;;;5014292;28;20230;-90
2020/12/27 06:22:27;;;;;;;0.60;0.60;;;6.10;99.90;;;;;;5013763;28;20179;-92
2020/12/27 06:24:55;;;;;;;0.67;0.67;;;6.10;99.90;;;;;;5014213;28;20172;-92
2020/12/27 06:27:21;;;;;;;1.90;0.80;;;6.10;99.90;;;;;;5014373;28;20180;-92
2020/12/27 06:30:02;;;;;;;0.80;0.80;;;6.10;99.90;;;;;;5014219;28;20187;-90
2020/12/27 06:32:33;;;;;;;0.53;0.53;;;6.10;99.90;;;;;;5027384;28;20162;-90
2020/12/27 06:35:04;;;;;;;4.07;0.63;;;6.10;99.90;;;;;;5032663;28;20180;-91
2020/12/27 06:37:41;;;;;;;0.50;0.50;;;6.10;99.90;;;;;;5012688;28;20180;-91
2020/12/27 06:40:07;;;;;;;1.03;0.63;;;6.20;99.90;;;;;;5013332;28;20173;-90
2020/12/27 06:42:36;;;;;;;0.50;0.50;;;6.20;99.90;;;;;;5032638;28;20181;-94
2020/12/27 06:45:04;;;;;;;1.13;0.80;;;6.10;99.90;;;;;;5037691;28;20232;-93
2020/12/27 06:48:05;;;;;;;0.90;0.70;;;6.20;99.90;;;;;;5037546;28;20187;-93
2020/12/27 06:50:31;;;;;;;0.77;0.60;;;6.20;99.90;;;;;;4966049;28;20176;-92
2020/12/27 06:52:56;;;;;;;0.93;0.60;;;6.20;99.90;;;;;;5019980;28;20221;-92
2020/12/27 06:55:38;;;;;;;7.77;0.87;;;6.20;99.90;;;;;;5000923;28;20249;-92
2020/12/27 06:58:24;;;;;;;3.30;0.70;;;6.20;99.90;;;;;;5015270;28;20173;-92
2020/12/27 07:01:14;;;;;;;0.70;0.70;;;6.30;99.90;;;;;;5015036;28;20226;-93
2020/12/27 07:03:41;;;;;;;1.33;1.10;;;6.20;99.90;;;;;;5016613;28;20659;-93
2020/12/27 07:06:17;;;;;;;1.00;0.70;;;6.20;99.90;;;;;;5021105;28;20172;-92
2020/12/27 07:08:44;;;;;;;0.63;0.63;;;6.30;99.90;;;;;;5014912;28;20176;-93
2020/12/27 07:11:10;;;;;;;2.67;0.60;;;6.20;99.90;;;;;;4999081;28;20177;-93
2020/12/27 07:13:46;;;;;;;2.50;0.70;;;6.30;99.90;;;;;;5013679;28;20203;-90
2020/12/27 07:16:15;;;;;;;0.60;0.60;;;6.30;99.90;;;;;;5013670;28;20183;-94
2020/12/27 07:18:47;;;;;;;0.90;0.90;;;6.30;99.90;;;;;;5013870;28;20661;-92
2020/12/27 07:21:20;;;;;;;0.77;0.77;;;6.30;99.90;;;;;;5014094;28;20165;-92
2020/12/27 07:24:08;;;;;;;0.73;0.60;;;6.40;99.90;;;;;;5013667;28;20165;-90
2020/12/27 07:26:35;;;;;;;1.23;0.97;;;6.40;99.90;;;;;;4979867;28;20571;-92
2020/12/27 07:29:06;;;;;;;0.87;0.80;;;6.40;99.90;;;;;;4979313;28;20189;-92
2020/12/27 07:31:36;;;;;;;0.60;0.60;;;6.40;99.90;;;;;;5006845;28;20188;-91
2020/12/27 07:34:12;;;;;;;4.17;0.70;;;6.40;99.90;;;;;;5017029;28;20200;-91
2020/12/27 07:36:38;;;;;;;1.53;0.80;;;6.40;99.90;;;;;;5030965;28;20147;-90
2020/12/27 07:39:09;;;;;;;0.70;0.70;;;6.50;99.90;;;;;;5040166;28;20161;-93
2020/12/27 07:41:40;;;;;;;1.00;0.80;;;6.50;99.90;;;;;;5040437;28;20185;-92
2020/12/27 07:44:14;;;;;;;2.60;0.90;;;6.50;99.90;;;;;;5027743;28;20172;-91
2020/12/27 07:46:41;;;;;;;1.10;0.60;;;6.60;99.90;;;;;;5019268;28;20203;-90
2020/12/27 07:49:20;;;;;;;0.87;0.80;;;6.60;99.90;;;;;;5018559;28;20172;-90
2020/12/27 07:51:51;;;;;;;0.93;0.70;;;6.50;99.90;;;;;;5017903;28;20200;-92
2020/12/27 07:54:20;;;;;;;0.70;0.67;;;6.60;99.90;;;;;;5013381;28;20200;-92
2020/12/27 07:56:46;;;;;;;0.83;0.60;;;6.60;99.90;;;;;;5022899;28;20168;-91
2020/12/27 07:59:21;;;;;;;0.77;0.63;;;6.60;99.90;;;;;;5037734;28;20220;-92
2020/12/27 08:01:47;;;;;;;0.73;0.70;;;6.60;99.90;;;;;;5018741;28;20270;-90
2020/12/27 08:04:15;;;;;;;0.70;0.70;;;6.60;99.90;;;;;;5019330;28;20212;-91
2020/12/27 08:06:42;;;;;;;0.80;0.80;;;6.60;99.90;;;;;;5019136;28;20529;-92
2020/12/27 08:09:12;;;;;;;0.60;0.60;;;6.60;99.90;;;;;;5025637;28;20168;-90
2020/12/27 08:11:43;;;;;;;1.50;0.70;;;6.60;99.90;;;;;;4998775;28;20189;-90
2020/12/27 08:14:13;;;;;;;0.60;0.60;;;6.60;99.90;;;;;;4999453;28;20205;-92
2020/12/27 08:16:41;;;;;;;1.13;0.87;;;6.60;99.90;;;;;;5000034;28;20161;-90
2020/12/27 08:19:12;;;;;;;0.90;0.50;;;6.60;99.90;;;;;;5016315;28;20557;-90
2020/12/27 08:21:44;;;;;;;0.80;0.60;;;6.60;99.90;;;;;;5019965;28;20173;-92
2020/12/27 08:24:18;;;;;;;0.73;0.50;;;6.60;99.90;;;;;;5020049;28;20172;-93
2020/12/27 08:26:46;;;;;;;0.70;0.70;;;6.60;99.90;;;;;;5018660;28;20169;-93
2020/12/27 08:29:16;;;;;;;1.03;0.70;;;6.60;99.90;;;;;;5017685;28;20188;-91
2020/12/27 08:31:51;;;;;;;0.50;0.50;;;6.60;99.90;;;;;;5018292;28;20219;-93
2020/12/27 08:34:23;;;;;;;0.70;0.53;;;6.60;99.90;;;;;;5018979;28;20235;-91
2020/12/27 08:36:54;;;;;;;0.73;0.67;;;6.60;99.90;;;;;;5020752;28;20149;-91
2020/12/27 08:39:58;;;;;;;0.80;0.80;;;6.60;99.90;;;;;;5020843;28;20203;-91
2020/12/27 08:42:37;;;;;;;0.50;0.50;;;6.60;99.90;;;;;;4963120;28;20307;-91
2020/12/27 08:45:08;;;;;;;3.27;0.70;;;6.50;99.90;;;;;;5018014;28;20732;-93
2020/12/27 08:47:46;;;;;;;0.97;0.70;;;6.50;99.90;;;;;;5018878;28;20157;-94
2020/12/27 08:50:29;;;;;;;0.53;0.53;;;6.50;99.90;;;;;;5018452;28;20180;-92
2020/12/27 08:53:00;;;;;;;0.60;0.60;;;6.50;99.90;;;;;;4999872;28;20177;-91
2020/12/27 08:55:30;;;;;;;0.83;0.50;;;6.60;99.90;;;;;;5000485;28;20244;-92
2020/12/27 08:58:02;;;;;;;1.63;0.60;;;6.50;99.90;;;;;;4987839;28;20181;-91
2020/12/27 09:00:32;;;;;;;0.30;0.30;;;6.50;99.90;;;;;;5002590;28;20200;-92
2020/12/27 09:02:59;;;;;;;0.50;0.50;;;6.50;99.90;;;;;;5018959;28;20176;-91
2020/12/27 09:05:32;;;;;;;0.97;0.87;;;6.60;99.90;;;;;;5016250;28;20634;-92
2020/12/27 09:08:04;;;;;;;1.13;0.50;;;6.60;99.90;;;;;;5004606;28;20219;-91
2020/12/27 09:10:30;;;;;;;0.77;0.57;;;6.60;99.90;;;;;;5018127;28;20165;-92
2020/12/27 09:12:56;;;;;;;0.87;0.60;;;6.70;99.90;;;;;;5019415;28;20657;-93
2020/12/27 09:15:24;;;;;;;0.63;0.53;;;6.70;99.90;;;;;;5022282;28;20177;-92
2020/12/27 09:18:01;;;;;;;0.50;0.50;;;6.70;99.90;;;;;;5022323;28;20169;-92
2020/12/27 09:20:28;;;;;;;0.67;0.60;;;6.70;99.90;;;;;;5024114;28;20161;-91
2020/12/27 09:22:54;;;;;;;0.87;0.50;;;6.70;99.90;;;;;;5026097;28;20211;-92
2020/12/27 09:25:21;;;;;;;0.40;0.40;;;6.70;99.90;;;;;;5032722;28;20169;-93
2020/12/27 09:27:52;;;;;;;0.60;0.60;;;6.70;99.90;;;;;;5029466;28;20173;-91
2020/12/27 09:30:26;;;;;;;0.40;0.40;;;6.70;99.90;;;;;;5027503;28;20156;-93
2020/12/27 09:33:01;;;;;;;1.10;0.50;;;6.70;99.90;;;;;;5026584;28;20179;-94
2020/12/27 09:35:28;;;;;;;1.50;0.70;;;6.70;99.90;;;;;;5020256;28;20176;-91
2020/12/27 09:37:57;;;;;;;1.10;0.60;;;6.80;99.90;;;;;;5018345;28;20173;-91
2020/12/27 09:40:23;;;;;;;0.70;0.70;;;6.80;99.90;;;;;;5017138;28;20195;-92
2020/12/27 09:42:48;;;;;;;2.83;0.50;;;6.80;99.90;;;;;;5015793;28;20638;-92
2020/12/27 09:45:22;;;;;;;0.60;0.60;;;6.80;99.90;;;;;;5016353;28;20584;-91
2020/12/27 09:47:57;;;;;;;0.73;0.67;;;6.80;99.90;;;;;;5015122;28;20173;-93
2020/12/27 09:50:34;;;;;;;1.03;0.60;;;6.80;99.90;;;;;;5015648;28;20183;-92
2020/12/27 09:53:04;;;;;;;0.53;0.50;;;6.80;99.90;;;;;;5015285;28;20208;-92
2020/12/27 09:55:30;;;;;;;0.73;0.70;;;6.80;99.90;;;;;;5014636;28;20560;-91
2020/12/27 09:57:59;;;;;;;4.27;0.50;;;6.70;99.90;;;;;;5016525;28;20195;-89
2020/12/27 10:00:25;;;;;;;0.50;0.50;;;6.70;99.90;;;;;;5015901;28;20173;-92
2020/12/27 10:02:54;;;;;;;1.17;0.50;;;6.80;99.90;;;;;;5021152;28;20196;-90
2020/12/27 10:05:19;;;;;;;0.57;0.57;;;6.70;99.90;;;;;;5036601;28;20161;-91
2020/12/27 10:07:45;;;;;;;0.97;0.50;;;6.70;99.90;;;;;;5021634;28;20189;-91
2020/12/27 10:10:12;;;;;;;1.47;0.60;;;6.70;99.90;;;;;;5018628;28;20177;-91
2020/12/27 10:12:39;;;;;;;0.77;0.60;;;6.70;99.90;;;;;;5001039;28;20169;-91
2020/12/27 10:15:09;;;;;;;0.80;0.60;;;6.70;99.90;;;;;;5016826;28;20212;-90
2020/12/27 10:17:37;;;;;;;0.60;0.50;;;6.70;99.90;;;;;;5017092;28;20180;-92
2020/12/27 10:20:05;;;;;;;2.27;0.50;;;6.70;99.90;;;;;;5016097;28;20263;-92
2020/12/27 10:22:31;;;;;;;0.50;0.50;;;6.70;99.90;;;;;;5033772;28;20200;-92
2020/12/27 10:24:56;;;;;;;0.60;0.50;;;6.70;99.90;;;;;;5035264;28;20177;-92
2020/12/27 10:27:25;;;;;;;2.07;0.57;;;6.70;99.90;;;;;;5006450;28;20177;-91
2020/12/27 10:29:53;;;;;;;1.57;0.50;;;6.70;99.90;;;;;;5012392;28;20215;-93
2020/12/27 10:32:23;;;;;;;0.87;0.43;;;6.70;99.90;;;;;;5005538;28;20818;-91
2020/12/27 10:34:49;;;;;;;1.07;0.60;;;6.80;99.90;;;;;;4992139;28;20677;-91
2020/12/27 10:37:15;;;;;;;0.60;0.60;;;6.80;99.90;;;;;;5013979;28;20180;-92
2020/12/27 10:39:40;;;;;;;4.60;0.50;;;6.70;99.90;;;;;;5009782;28;20238;-90
2020/12/27 10:42:06;;;;;;;0.40;0.40;;;6.70;99.90;;;;;;5004228;28;20284;-89
2020/12/27 10:44:34;;;;;;;0.87;0.73;;;6.70;99.90;;;;;;5001631;28;20228;-92
2020/12/27 10:47:00;;;;;;;0.50;0.50;;;6.70;99.90;;;;;;5004952;28;20181;-88
2020/12/27 10:49:26;;;;;;;0.87;0.40;;;6.80;99.90;;;;;;5002269;28;20184;-89
2020/12/27 10:51:51;;;;;;;0.50;0.50;;;6.80;99.90;;;;;;5006235;28;20212;-90
2020/12/27 10:54:18;;;;;;;1.13;0.50;;;6.70;99.90;;;;;;4996537;28;20216;-90
2020/12/27 10:56:45;;;;;;;0.47;0.40;;;6.70;99.90;;;;;;5010837;28;20236;-90
2020/12/27 10:59:14;;;;;;;0.87;0.47;;;6.70;99.90;;;;;;5012427;28;20267;-91
2020/12/27 11:01:45;;;;;;;0.40;0.40;;;6.70;99.90;;;;;;5013713;28;20259;-91
2020/12/27 11:04:13;;;;;;;2.23;0.70;;;6.70;99.90;;;;;;5013508;28;20181;-89
2020/12/27 11:06:41;;;;;;;0.57;0.50;;;6.70;99.90;;;;;;5013604;28;20242;-90
2020/12/27 11:09:07;;;;;;;0.30;0.30;;;6.70;99.90;;;;;;5015976;28;20181;-90
2020/12/27 11:11:35;;;;;;;0.87;0.30;;;6.70;99.90;;;;;;5016887;28;20177;-90
2020/12/27 11:14:07;;;;;;;1.23;0.37;;;6.70;99.90;;;;;;5017869;28;20203;-90
2020/12/27 11:16:33;;;;;;;0.53;0.40;;;6.70;99.90;;;;;;5017544;28;20176;-90
2020/12/27 11:19:00;;;;;;;1.27;0.43;;;6.70;99.90;;;;;;5012624;28;20260;-90
2020/12/27 11:21:36;;;;;;;0.73;0.50;;;6.80;99.90;;;;;;5018184;28;20173;-92
2020/12/27 11:24:01;;;;;;;0.50;0.50;;;6.80;99.90;;;;;;5002327;28;20185;-89
2020/12/27 11:26:27;;;;;;;0.50;0.40;;;6.80;99.90;;;;;;5022055;28;20744;-90
2020/12/27 11:28:55;;;;;;;1.57;0.60;;;6.80;99.90;;;;;;5014263;28;20188;-91
2020/12/27 11:31:21;;;;;;;0.70;0.40;;;6.70;99.90;;;;;;5000054;28;20263;-89
2020/12/27 11:33:48;;;;;;;1.50;0.40;;;6.80;99.90;;;;;;5017258;28;20236;-90
2020/12/27 11:36:14;;;;;;;0.60;0.60;;;6.80;99.90;;;;;;5017554;28;20179;-90
2020/12/27 11:38:39;;;;;;;0.83;0.40;;;6.80;99.90;;;;;;5017865;28;20529;-88
2020/12/27 11:41:05;;;;;;;0.40;0.40;;;6.80;99.90;;;;;;5016650;28;20191;-88
2020/12/27 11:43:34;;;;;;;0.40;0.40;;;6.70;99.90;;;;;;5017319;28;20193;-89
2020/12/27 11:45:59;;;;;;;2.10;0.40;;;6.70;99.90;;;;;;5016995;28;20180;-91
2020/12/27 11:48:26;;;;;;;0.93;0.60;;;6.70;99.90;;;;;;5000497;28;20263;-91
2020/12/27 11:50:51;;;;;;;2.73;0.30;;;6.70;99.90;;;;;;5016889;28;20200;-91
2020/12/27 11:53:19;;;;;;;0.90;0.50;;;6.80;99.90;;;;;;5017660;28;20211;-90
2020/12/27 11:55:45;;;;;;;0.30;0.30;;;6.70;99.90;;;;;;5017103;28;20173;-91
2020/12/27 11:58:11;;;;;;;1.43;0.60;;;6.70;99.90;;;;;;5015915;28;20184;-91
2020/12/27 12:00:36;;;;;;;1.80;0.53;;;6.80;99.90;;;;;;5015748;28;20295;-91
2020/12/27 12:03:02;;;;;;;0.50;0.50;;;6.80;99.90;;;;;;5016644;28;20190;-91
2020/12/27 12:05:28;;;;;;;0.53;0.40;;;6.70;99.90;;;;;;5005951;28;20257;-91
2020/12/27 12:07:54;;;;;;;1.80;0.50;;;6.80;99.90;;;;;;4980937;28;20634;-90
2020/12/27 12:10:20;;;;;;;1.37;0.50;;;6.80;99.90;;;;;;4997464;28;20394;-91
2020/12/27 12:12:46;;;;;;;0.40;0.40;;;6.80;99.90;;;;;;5013454;28;20173;-90
2020/12/27 12:15:11;;;;;;;1.00;0.50;;;6.80;99.90;;;;;;4988535;28;20177;-91
2020/12/27 12:17:37;;;;;;;0.80;0.53;;;6.80;99.90;;;;;;5016351;28;20173;-91
2020/12/27 12:20:03;;;;;;;0.73;0.60;;;6.80;99.90;;;;;;5015152;28;20165;-92
2020/12/27 12:22:28;;;;;;;2.20;0.50;;;6.80;99.90;;;;;;5012858;28;20188;-92
2020/12/27 12:24:54;;;;;;;2.03;0.40;;;6.80;99.90;;;;;;5007355;28;20176;-90
2020/12/27 12:27:20;;;;;;;0.70;0.57;;;6.70;99.90;;;;;;5020106;28;20514;-90
2020/12/27 12:29:46;;;;;;;1.97;0.50;;;6.70;99.90;;;;;;5019309;28;20176;-92
2020/12/27 12:32:11;;;;;;;0.83;0.50;;;6.70;99.90;;;;;;5018773;28;20165;-89
2020/12/27 12:34:37;;;;;;;0.60;0.30;;;6.70;99.90;;;;;;5038226;28;20239;-90
2020/12/27 12:37:06;;;;;;;0.50;0.50;;;6.70;99.90;;;;;;5019618;28;20180;-92
2020/12/27 12:39:32;;;;;;;0.60;0.60;;;6.70;99.90;;;;;;5008937;28;20212;-92
2020/12/27 12:41:58;;;;;;;3.60;0.50;;;6.70;99.90;;;;;;4976149;28;20189;-91
2020/12/27 12:44:27;;;;;;;1.23;0.70;;;6.70;99.90;;;;;;5018277;28;20645;-92
2020/12/27 12:46:52;;;;;;;0.50;0.33;;;6.70;99.90;;;;;;5019607;28;20172;-91
2020/12/27 12:49:20;;;;;;;0.53;0.50;;;6.70;99.90;;;;;;5025579;28;20165;-91
2020/12/27 12:51:46;;;;;;;1.53;0.70;;;6.70;99.90;;;;;;5003926;28;20177;-91
2020/12/27 12:54:11;;;;;;;0.63;0.63;;;6.70;99.90;;;;;;5034547;28;20211;-91
2020/12/27 12:56:38;;;;;;;1.83;0.50;;;6.70;99.90;;;;;;5011057;28;20177;-90
2020/12/27 12:59:03;;;;;;;0.93;0.63;;;6.70;99.90;;;;;;5000808;28;20192;-92
2020/12/27 13:01:29;;;;;;;1.50;0.50;;;6.80;99.90;;;;;;4997477;28;20182;-92